• Join FlightAware (Why Join?)
  • Login
  • US Flag 
12:38PM EDT


 

Airport Tracker/Info


-or-


 

Live Flight TrackerFlight Track Log ✈ EJM916 ✈ 06-Jul-2013 ✈ KFAY - KSDF

Flight Track Log - Related Links

Times and Time Zones

All times are in EDT time to prevent confusion due to time zone crossing. See the EJM916 flight status page for this flight to view local times or setup timezone preferences in your user account.

Time Position Orientation Groundspeed Altitude Reporting Facility
EDT Latitude Longitude Course Direction KTS MPH feet Rate Location/Type
05:17PM 34.9536 -78.9269 302° West 203 234 3,200  Level Washington Center
05:18PM 34.9494 -79.0003 266° West 227 261 6,800 3,360 Climbing Washington Center
05:19PM 34.9508 -79.0964 271° West 259 298 9,900 2,460 Climbing Washington Center
05:20PM 34.9792 -79.1992 289° West 288 331 11,800 2,520 Climbing Washington Center
05:21PM 35.0692 -79.2539 334° Northwest 305 351 15,000 3,000 Climbing Washington Center
05:22PM 35.1658 -79.3067 336° Northwest 351 404 17,900 3,000 Climbing Washington Center
05:23PM 35.3825 -79.6518 302° West  Level Estimated
05:23PM 35.2689 -79.3444 343° North 365 420 20,900  Level Washington Center
05:24PM 35.3881 -79.4008 339° North 404 465 23,100 1,980 Climbing Washington Center
05:25PM 35.4947 -79.4594 336° Northwest 410 472 25,000 1,920 Climbing Washington Center
05:28PM 35.7417 -79.5819 338° Northwest 444 511 29,400 1,740 Climbing Atlanta Center
05:29PM 35.8292 -79.6975 313° West 420 483 30,700 780 Climbing Atlanta Center
05:30PM 35.8536 -79.8575 281° West 425 489 31,000 360 Climbing Atlanta Center
05:31PM 35.8506 -80.0139 269° West 444 511 31,500 960 Climbing Atlanta Center
05:32PM 35.8550 -80.1572 272° West 459 528 33,000 1,200 Climbing Atlanta Center
05:33PM 35.8894 -80.3247 284° West 459 528 34,000 840 Climbing Atlanta Center
05:34PM 35.9458 -80.4683 296° West 456 525 34,700 480 Climbing Atlanta Center
05:35PM 36.0019 -80.6097 296° West 456 525 35,000 600 Climbing Atlanta Center
05:36PM 36.0581 -80.7536 296° West 464 534 36,000 1,020 Climbing Atlanta Center
05:37PM 36.1142 -80.8978 296° West 464 534 37,100 960 Climbing Atlanta Center
05:38PM 36.1675 -81.0397 295° West 458 527 38,000 420 Climbing Atlanta Center
05:39PM 36.2211 -81.1794 295° West 458 527 38,000  Level Atlanta Center
05:40PM 36.3011 -81.3028 309° West 453 521 38,000 -180 Level Atlanta Center
05:41PM 36.3889 -81.4158 314° West 458 527 37,700 -720 Descending Atlanta Center
05:42PM 36.4811 -81.5317 315° West 458 527 36,600 -1,260 Descending Atlanta Center
05:43PM 36.5689 -81.6453 314° West 458 527 35,200 -1,500 Descending Atlanta Center
05:45PM 36.7656 -81.8942 315° West 477 549 32,000 -1,500 Descending Indianapolis Center
05:46PM 36.8544 -82.0225 311° West 485 558 30,500 -1,020 Descending Indianapolis Center
05:47PM 36.9008 -82.1822 290° West 488 562 30,000 -300 Descending Indianapolis Center
05:48PM 36.9458 -82.3375 290° West 478 550 30,000  Level Indianapolis Center
05:49PM 36.9897 -82.4914 290° West 472 543 30,000  Level Indianapolis Center
05:50PM 37.0400 -82.6697 290° West 470 541 30,000  Level Indianapolis Center
05:51PM 37.0836 -82.8208 290° West 470 541 30,000  Level Indianapolis Center
05:52PM 37.1258 -82.9733 289° West 471 542 30,000  Level Indianapolis Center
05:53PM 37.1667 -83.1250 289° West 465 535 30,000  Level Indianapolis Center
05:54PM 37.2086 -83.2758 289° West 461 531 30,000  Level Indianapolis Center
05:55PM 37.2497 -83.4286 289° West 463 533 30,000  Level Indianapolis Center
05:56PM 37.2992 -83.6072 289° West 463 533 30,000  Level Indianapolis Center
05:57PM 37.3411 -83.7603 289° West 464 534 30,000 -780 Level Indianapolis Center
05:58PM 37.3808 -83.9136 288° West 462 532 28,500 -2,220 Descending Indianapolis Center
05:59PM 37.4214 -84.0656 289° West 459 528 25,600 -2,820 Descending Indianapolis Center
06:00PM 37.4611 -84.2128 289° West 448 516 22,800 -2,820 Descending Indianapolis Center
06:01PM 37.4975 -84.3506 288° West 416 479 19,900 -2,760 Descending Indianapolis Center
06:02PM 37.5322 -84.4839 288° West 400 460 17,300 -2,640 Descending Indianapolis Center
06:03PM 37.5647 -84.6106 288° West 384 442 14,500 -2,400 Descending Indianapolis Center
06:04PM 37.6003 -84.7439 289° West 349 402 12,400 -1,740 Descending Indianapolis Center
06:05PM 37.6289 -84.8508 289° West 322 371 11,000 -1,200 Descending Indianapolis Center
06:06PM 37.6542 -84.9486 288° West 295 339 10,000 -540 Descending Indianapolis Center
06:07PM 37.7086 -85.0294 310° West 301 346 10,000  Level Indianapolis Center
06:08PM 37.7644 -85.1067 312° West 299 344 10,000 -60 Level Indianapolis Center
06:09PM 37.8194 -85.1844 312° West 296 341 9,900 -660 Descending Indianapolis Center
06:10PM 37.8822 -85.2675 314° West 296 341 8,700 -1,080 Descending Indianapolis Center
06:11PM 37.9361 -85.3417 313° West 288 331 7,700 -1,020 Descending Indianapolis Center
06:12PM 37.9881 -85.4153 312° West 282 325 6,700 -1,020 Descending Indianapolis Center
06:13PM 38.0389 -85.4889 311° West 278 320 5,700 -1,020 Descending Indianapolis Center
06:14PM 38.0914 -85.5594 313° West 275 316 4,700 -840 Descending Indianapolis Center
06:15PM 38.1553 -85.6067 330° Northwest 277 319 4,100 -360 Descending Indianapolis Center
06:16PM 38.2261 -85.6314 345° North 268 308 4,000 -60 Descending Indianapolis Center
06:17PM 38.2872 -85.6539 344° North 250 288 4,000 -300 Level Indianapolis Center
06:19PM 38.3269 -85.6947 321° Northwest 230 265 3,400 -540 Descending Indianapolis Center
06:20PM 38.3089 -85.7511 248° West 194 223 3,000 -480 Descending Indianapolis Center
06:21PM 38.2589 -85.7694 196° South 180 207 2,500 -540 Descending Indianapolis Center